AS241 FOOL-FAOR
Flight info
| Callsign | AS241 |
|---|---|
| Flight time | N/A |
| Altitude | 31000 |
| Route | PILVI1S PILVI UR526 VNA/N0480F330 UT942 ARGOL R987 UVAMO UT942 ETKUR/N0477F350 UT942 UTVIN UM998 XOXAM UL435 ETOSA UZ10 PEDIL/N0426F230 Q19 AVAGO AVAGO1C |
| Aircraft | B738/M-SDE2E3FGHIRWXY/LB1 |
Departure
| Time | 2026-04-25 11:49 |
|---|---|
| Airport | Libreville Leon M'ba International Airport (FOOL) |
Arrival
| Time | N/A |
|---|---|
| Airport | O.R. Tambo International Airport (FAOR) |
| Time | Latitude | Longitude | Altitude | Speed | Heading |
|---|---|---|---|---|---|
| 2026-04-25 11:35 | 0.45748 | 9.41087 | 36 ft | 0 kts | 139° |
| 2026-04-25 11:40 | 0.45747 | 9.41088 | 34 ft | 1 kts | 136° |
| 2026-04-25 11:40 | 0.45746 | 9.41095 | 35 ft | 1 kts | 98° |
| 2026-04-25 11:40 | 0.45749 | 9.41112 | 35 ft | 4 kts | 81° |
| 2026-04-25 11:41 | 0.45763 | 9.41145 | 34 ft | 7 kts | 40° |
| 2026-04-25 11:41 | 0.45818 | 9.41175 | 36 ft | 11 kts | 37° |
| 2026-04-25 11:41 | 0.45889 | 9.41209 | 36 ft | 14 kts | 349° |
| 2026-04-25 11:41 | 0.45990 | 9.41167 | 35 ft | 17 kts | 334° |
| 2026-04-25 11:42 | 0.46107 | 9.41110 | 36 ft | 20 kts | 334° |
| 2026-04-25 11:42 | 0.46239 | 9.41051 | 37 ft | 22 kts | 335° |
| 2026-04-25 11:42 | 0.46382 | 9.40981 | 35 ft | 23 kts | 334° |
| 2026-04-25 11:42 | 0.46526 | 9.40913 | 39 ft | 23 kts | 335° |
| 2026-04-25 11:43 | 0.46665 | 9.40846 | 37 ft | 22 kts | 333° |
| 2026-04-25 11:43 | 0.46801 | 9.40781 | 38 ft | 21 kts | 334° |
| 2026-04-25 11:43 | 0.46932 | 9.40718 | 36 ft | 21 kts | 335° |
| 2026-04-25 11:43 | 0.47022 | 9.40631 | 37 ft | 15 kts | 330° |
| 2026-04-25 11:44 | 0.47049 | 9.40662 | 37 ft | 7 kts | 145° |
| 2026-04-25 11:44 | 0.47025 | 9.40673 | 36 ft | 0 kts | 155° |
| 2026-04-25 11:48 | 0.47022 | 9.40674 | 36 ft | 5 kts | 155° |
| 2026-04-25 11:48 | 0.46827 | 9.40768 | 38 ft | 63 kts | 154° |
| 2026-04-25 11:48 | 0.46230 | 9.41056 | 37 ft | 125 kts | 154° |
| 2026-04-25 11:49 | 0.45301 | 9.41519 | 60 ft | 172 kts | 152° |
| 2026-04-25 11:49 | 0.44266 | 9.42032 | 898 ft | 157 kts | 153° |
| 2026-04-25 11:49 | 0.43184 | 9.42365 | 1497 ft | 170 kts | 175° |
| 2026-04-25 11:49 | 0.41959 | 9.42282 | 1876 ft | 191 kts | 191° |
| 2026-04-25 11:50 | 0.40620 | 9.41808 | 2105 ft | 215 kts | 206° |
| 2026-04-25 11:50 | 0.39369 | 9.40886 | 2369 ft | 235 kts | 224° |
| 2026-04-25 11:50 | 0.38397 | 9.39484 | 2588 ft | 256 kts | 242° |
| 2026-04-25 11:50 | 0.37629 | 9.37828 | 3108 ft | 265 kts | 244° |
| 2026-04-25 11:51 | 0.36856 | 9.36147 | 3866 ft | 265 kts | 243° |
| 2026-04-25 11:51 | 0.36104 | 9.34568 | 4573 ft | 267 kts | 243° |
| 2026-04-25 11:51 | 0.35288 | 9.32915 | 5219 ft | 271 kts | 238° |
| 2026-04-25 11:51 | 0.34045 | 9.31521 | 5760 ft | 270 kts | 212° |
| 2026-04-25 11:52 | 0.32308 | 9.30823 | 5902 ft | 272 kts | 186° |
| 2026-04-25 11:52 | 0.30430 | 9.31016 | 6377 ft | 272 kts | 161° |
| 2026-04-25 11:52 | 0.28735 | 9.31850 | 7072 ft | 275 kts | 148° |
| 2026-04-25 11:52 | 0.27136 | 9.32943 | 7629 ft | 281 kts | 145° |
| 2026-04-25 11:53 | 0.25555 | 9.34089 | 8301 ft | 282 kts | 145° |
| 2026-04-25 11:53 | 0.23954 | 9.35249 | 8940 ft | 285 kts | 145° |
| 2026-04-25 11:53 | 0.22334 | 9.36407 | 9568 ft | 289 kts | 145° |
| 2026-04-25 11:53 | 0.20693 | 9.37566 | 10156 ft | 292 kts | 146° |
| 2026-04-25 11:54 | 0.18983 | 9.38764 | 10461 ft | 307 kts | 146° |
| 2026-04-25 11:54 | 0.17196 | 9.40008 | 10783 ft | 319 kts | 146° |
| 2026-04-25 11:54 | 0.13388 | 9.42572 | 11409 ft | 342 kts | 152° |
| 2026-04-25 11:55 | 0.11238 | 9.43656 | 11794 ft | 350 kts | 156° |
| 2026-04-25 11:55 | 0.08995 | 9.44661 | 12223 ft | 357 kts | 157° |
| 2026-04-25 11:55 | 0.06699 | 9.45662 | 12675 ft | 362 kts | 157° |
| 2026-04-25 11:55 | 0.04381 | 9.46678 | 13152 ft | 367 kts | 157° |
| 2026-04-25 11:56 | 0.02025 | 9.47722 | 13573 ft | 373 kts | 157° |
| 2026-04-25 11:56 | -0.00365 | 9.48796 | 13994 ft | 378 kts | 156° |
| 2026-04-25 11:56 | -0.02773 | 9.49887 | 14406 ft | 382 kts | 156° |
| 2026-04-25 11:56 | -0.05203 | 9.50995 | 14829 ft | 385 kts | 156° |
| 2026-04-25 11:57 | -0.07656 | 9.52118 | 15238 ft | 389 kts | 156° |
| 2026-04-25 11:57 | -0.10086 | 9.53233 | 15638 ft | 392 kts | 156° |
| 2026-04-25 11:57 | -0.12582 | 9.54378 | 16033 ft | 396 kts | 156° |
| 2026-04-25 11:57 | -0.15095 | 9.55531 | 16435 ft | 398 kts | 156° |
| 2026-04-25 11:58 | -0.17627 | 9.56693 | 16823 ft | 402 kts | 156° |
| 2026-04-25 11:58 | -0.20176 | 9.57864 | 17200 ft | 405 kts | 156° |
| 2026-04-25 11:58 | -0.22755 | 9.59048 | 17500 ft | 410 kts | 156° |
| 2026-04-25 11:58 | -0.25369 | 9.60248 | 17830 ft | 413 kts | 156° |
| 2026-04-25 11:59 | -0.27997 | 9.61454 | 18170 ft | 417 kts | 156° |
| 2026-04-25 11:59 | -0.30619 | 9.62658 | 18658 ft | 414 kts | 156° |
| 2026-04-25 11:59 | -0.33243 | 9.63863 | 19027 ft | 414 kts | 156° |
| 2026-04-25 12:00 | -0.38449 | 9.66253 | 19803 ft | 415 kts | 156° |
| 2026-04-25 12:00 | -0.41074 | 9.67458 | 20134 ft | 417 kts | 156° |
| 2026-04-25 12:00 | -0.46379 | 9.69893 | 20784 ft | 420 kts | 156° |
| 2026-04-25 12:01 | -0.49023 | 9.71107 | 21062 ft | 423 kts | 156° |
| 2026-04-25 12:01 | -0.51706 | 9.72338 | 21291 ft | 427 kts | 156° |
| 2026-04-25 12:01 | -0.54424 | 9.73586 | 21590 ft | 429 kts | 156° |
| 2026-04-25 12:01 | -0.57144 | 9.74834 | 21903 ft | 430 kts | 155° |
| 2026-04-25 12:02 | -0.62586 | 9.77333 | 22460 ft | 434 kts | 155° |
| 2026-04-25 12:02 | -0.65334 | 9.78595 | 22745 ft | 435 kts | 155° |
| 2026-04-25 12:02 | -0.68101 | 9.79865 | 23059 ft | 435 kts | 155° |
| 2026-04-25 12:03 | -0.70852 | 9.81128 | 23352 ft | 436 kts | 155° |
| 2026-04-25 12:03 | -0.73621 | 9.82400 | 23590 ft | 438 kts | 155° |
| 2026-04-25 12:03 | -0.76400 | 9.83676 | 23776 ft | 441 kts | 155° |
| 2026-04-25 12:03 | -0.79165 | 9.84946 | 23959 ft | 443 kts | 155° |
| 2026-04-25 12:04 | -0.81971 | 9.86243 | 24173 ft | 445 kts | 155° |
| 2026-04-25 12:04 | -0.84791 | 9.87552 | 24317 ft | 448 kts | 154° |
| 2026-04-25 12:04 | -0.87633 | 9.88874 | 24486 ft | 450 kts | 154° |
| 2026-04-25 12:04 | -0.90481 | 9.90198 | 24638 ft | 452 kts | 154° |
| 2026-04-25 12:05 | -0.93350 | 9.91532 | 24734 ft | 456 kts | 154° |
| 2026-04-25 12:05 | -0.96209 | 9.92861 | 24856 ft | 459 kts | 154° |
| 2026-04-25 12:05 | -0.99110 | 9.94208 | 25079 ft | 459 kts | 154° |
| 2026-04-25 12:05 | -1.02004 | 9.95552 | 25304 ft | 459 kts | 154° |
| 2026-04-25 12:06 | -1.04916 | 9.96905 | 25444 ft | 462 kts | 154° |
| 2026-04-25 12:06 | -1.07839 | 9.98262 | 25654 ft | 462 kts | 154° |
| 2026-04-25 12:06 | -1.10758 | 9.99618 | 25790 ft | 464 kts | 154° |
| 2026-04-25 12:06 | -1.12706 | 10.00523 | 25916 ft | 465 kts | 154° |
| 2026-04-25 12:07 | -1.16592 | 10.02328 | 26222 ft | 464 kts | 154° |
| 2026-04-25 12:07 | -1.19518 | 10.03688 | 26413 ft | 465 kts | 154° |
| 2026-04-25 12:07 | -1.22459 | 10.05054 | 26585 ft | 466 kts | 154° |
| 2026-04-25 12:07 | -1.25408 | 10.06428 | 26759 ft | 467 kts | 154° |
| 2026-04-25 12:08 | -1.27353 | 10.07358 | 26883 ft | 468 kts | 153° |
| 2026-04-25 12:08 | -1.30274 | 10.08785 | 27088 ft | 468 kts | 153° |
| 2026-04-25 12:08 | -1.33194 | 10.10226 | 27234 ft | 469 kts | 153° |
| 2026-04-25 12:08 | -1.36141 | 10.11683 | 27377 ft | 471 kts | 153° |
| 2026-04-25 12:09 | -1.39096 | 10.13142 | 27486 ft | 474 kts | 153° |
| 2026-04-25 12:09 | -1.42060 | 10.14600 | 27616 ft | 475 kts | 153° |
| 2026-04-25 12:09 | -1.45040 | 10.16063 | 27788 ft | 476 kts | 153° |
| 2026-04-25 12:09 | -1.47982 | 10.17505 | 27970 ft | 476 kts | 153° |
| 2026-04-25 12:10 | -1.50960 | 10.18963 | 28129 ft | 477 kts | 153° |
| 2026-04-25 12:10 | -1.53949 | 10.20426 | 28267 ft | 478 kts | 153° |
| 2026-04-25 12:10 | -1.56936 | 10.21889 | 28388 ft | 479 kts | 153° |
| 2026-04-25 12:10 | -1.59944 | 10.23363 | 28505 ft | 480 kts | 153° |
| 2026-04-25 12:11 | -1.62946 | 10.24833 | 28641 ft | 481 kts | 153° |
| 2026-04-25 12:11 | -1.65961 | 10.26311 | 28798 ft | 482 kts | 153° |
| 2026-04-25 12:11 | -1.68946 | 10.27773 | 28940 ft | 482 kts | 153° |
| 2026-04-25 12:11 | -1.71961 | 10.29251 | 29106 ft | 482 kts | 153° |
| 2026-04-25 12:12 | -1.74975 | 10.30728 | 29301 ft | 482 kts | 153° |
| 2026-04-25 12:12 | -1.77985 | 10.32203 | 29542 ft | 480 kts | 153° |
| 2026-04-25 12:12 | -1.80986 | 10.33674 | 29765 ft | 479 kts | 153° |
| 2026-04-25 12:12 | -1.83986 | 10.35144 | 29958 ft | 479 kts | 153° |
| 2026-04-25 12:13 | -1.87026 | 10.36532 | 30123 ft | 479 kts | 156° |
| 2026-04-25 12:13 | -1.90070 | 10.37790 | 30316 ft | 478 kts | 157° |
| 2026-04-25 12:13 | -1.93168 | 10.39027 | 30515 ft | 477 kts | 157° |
| 2026-04-25 12:13 | -1.96245 | 10.40260 | 30722 ft | 476 kts | 157° |
| 2026-04-25 12:14 | -1.99318 | 10.41512 | 30915 ft | 475 kts | 156° |
| 2026-04-25 12:14 | -2.02337 | 10.42759 | 31114 ft | 474 kts | 156° |
| 2026-04-25 12:14 | -2.05383 | 10.44022 | 31301 ft | 473 kts | 156° |
| 2026-04-25 12:14 | -2.08430 | 10.45283 | 31513 ft | 472 kts | 156° |
| 2026-04-25 12:15 | -2.11461 | 10.46528 | 31709 ft | 471 kts | 156° |
| 2026-04-25 12:15 | -2.14501 | 10.47772 | 31917 ft | 470 kts | 156° |
| 2026-04-25 12:15 | -2.17528 | 10.49011 | 32129 ft | 469 kts | 156° |
| 2026-04-25 12:15 | -2.20555 | 10.50249 | 32331 ft | 468 kts | 156° |
| 2026-04-25 12:16 | -2.23528 | 10.51467 | 32530 ft | 467 kts | 156° |
| 2026-04-25 12:16 | -2.26570 | 10.52714 | 32726 ft | 466 kts | 156° |
| 2026-04-25 12:16 | -2.29528 | 10.53927 | 32927 ft | 465 kts | 156° |
| 2026-04-25 12:16 | -2.32525 | 10.55156 | 33143 ft | 464 kts | 156° |
| 2026-04-25 12:17 | -2.35516 | 10.56383 | 33333 ft | 463 kts | 156° |
| 2026-04-25 12:17 | -2.38497 | 10.57607 | 33532 ft | 463 kts | 156° |
| 2026-04-25 12:17 | -2.41482 | 10.58832 | 33739 ft | 461 kts | 156° |
| 2026-04-25 12:17 | -2.44454 | 10.60051 | 33946 ft | 460 kts | 156° |
| 2026-04-25 12:18 | -2.47379 | 10.61251 | 34108 ft | 460 kts | 156° |
| 2026-04-25 12:18 | -2.50336 | 10.62464 | 34254 ft | 459 kts | 156° |
| 2026-04-25 12:18 | -2.53302 | 10.63682 | 34407 ft | 459 kts | 156° |
| 2026-04-25 12:18 | -2.56261 | 10.64896 | 34531 ft | 459 kts | 156° |
| 2026-04-25 12:19 | -2.61179 | 10.66915 | 34751 ft | 459 kts | 156° |
| 2026-04-25 12:19 | -2.65145 | 10.68543 | 34867 ft | 460 kts | 156° |
| 2026-04-25 12:20 | -2.71044 | 10.70964 | 34880 ft | 461 kts | 156° |
| 2026-04-25 12:20 | -2.76979 | 10.73401 | 34890 ft | 459 kts | 156° |
| 2026-04-25 12:21 | -2.82904 | 10.75833 | 34875 ft | 459 kts | 156° |
| 2026-04-25 12:21 | -2.88785 | 10.78248 | 34888 ft | 458 kts | 156° |
| 2026-04-25 12:22 | -2.94689 | 10.80673 | 34873 ft | 458 kts | 156° |
| 2026-04-25 12:22 | -3.00592 | 10.83098 | 34887 ft | 458 kts | 156° |
| 2026-04-25 12:23 | -3.06506 | 10.85528 | 34876 ft | 459 kts | 156° |
| 2026-04-25 12:23 | -3.12391 | 10.87945 | 34878 ft | 460 kts | 156° |
| 2026-04-25 12:24 | -3.18323 | 10.90380 | 34891 ft | 460 kts | 156° |
| 2026-04-25 12:24 | -3.24255 | 10.92816 | 34871 ft | 461 kts | 156° |
| 2026-04-25 12:25 | -3.30153 | 10.95239 | 34882 ft | 461 kts | 156° |
| 2026-04-25 12:25 | -3.36096 | 10.97681 | 34888 ft | 461 kts | 156° |
| 2026-04-25 12:26 | -3.42034 | 11.00121 | 34878 ft | 461 kts | 156° |
| 2026-04-25 12:26 | -3.47952 | 11.02554 | 34877 ft | 462 kts | 156° |
| 2026-04-25 12:27 | -3.53915 | 11.05005 | 34889 ft | 462 kts | 156° |
| 2026-04-25 12:27 | -3.59874 | 11.07455 | 34872 ft | 462 kts | 156° |
| 2026-04-25 12:28 | -3.65795 | 11.09889 | 34870 ft | 462 kts | 156° |
| 2026-04-25 12:28 | -3.71756 | 11.12341 | 34867 ft | 462 kts | 156° |
| 2026-04-25 12:29 | -3.77705 | 11.14788 | 34868 ft | 461 kts | 156° |
| 2026-04-25 12:29 | -3.83647 | 11.17233 | 34880 ft | 461 kts | 156° |
| 2026-04-25 12:30 | -3.89550 | 11.19662 | 34865 ft | 461 kts | 155° |
| 2026-04-25 12:30 | -3.95494 | 11.22108 | 34876 ft | 461 kts | 155° |
| 2026-04-25 12:31 | -4.01392 | 11.24536 | 34871 ft | 460 kts | 155° |
| 2026-04-25 12:31 | -4.07319 | 11.26976 | 34874 ft | 460 kts | 155° |
| 2026-04-25 12:32 | -4.13251 | 11.29420 | 34878 ft | 460 kts | 155° |
| 2026-04-25 12:32 | -4.19179 | 11.31863 | 34877 ft | 460 kts | 155° |
| 2026-04-25 12:33 | -4.25060 | 11.34288 | 34874 ft | 460 kts | 155° |
| 2026-04-25 12:33 | -4.30991 | 11.36732 | 34873 ft | 460 kts | 155° |
| 2026-04-25 12:34 | -4.36913 | 11.39174 | 34883 ft | 460 kts | 155° |
| 2026-04-25 12:34 | -4.42814 | 11.41608 | 34882 ft | 460 kts | 155° |
| 2026-04-25 12:35 | -4.48746 | 11.44055 | 34880 ft | 460 kts | 155° |
| 2026-04-25 12:35 | -4.54692 | 11.46508 | 34882 ft | 461 kts | 155° |
| 2026-04-25 12:36 | -4.60585 | 11.48939 | 34881 ft | 461 kts | 155° |
| 2026-04-25 12:36 | -4.66515 | 11.51386 | 34879 ft | 461 kts | 155° |
| 2026-04-25 12:37 | -4.72446 | 11.53834 | 34883 ft | 461 kts | 155° |
| 2026-04-25 12:37 | -4.78378 | 11.56284 | 34879 ft | 460 kts | 155° |
| 2026-04-25 12:38 | -4.84290 | 11.58725 | 34886 ft | 460 kts | 155° |
| 2026-04-25 12:38 | -4.90220 | 11.61174 | 34881 ft | 460 kts | 155° |
| 2026-04-25 12:39 | -4.96116 | 11.63610 | 34885 ft | 460 kts | 154° |
| 2026-04-25 12:39 | -5.02047 | 11.66060 | 34885 ft | 460 kts | 154° |
| 2026-04-25 12:40 | -5.07932 | 11.68493 | 34883 ft | 460 kts | 154° |
| 2026-04-25 12:40 | -5.13869 | 11.70946 | 34880 ft | 460 kts | 154° |
| 2026-04-25 12:41 | -5.19786 | 11.73382 | 34879 ft | 460 kts | 154° |
| 2026-04-25 12:41 | -5.25688 | 11.75811 | 34878 ft | 460 kts | 154° |
| 2026-04-25 12:42 | -5.31608 | 11.78248 | 34880 ft | 460 kts | 154° |
| 2026-04-25 12:42 | -5.37511 | 11.80680 | 34874 ft | 460 kts | 154° |
| 2026-04-25 12:43 | -5.43449 | 11.83127 | 34877 ft | 461 kts | 154° |
| 2026-04-25 12:43 | -5.52332 | 11.86789 | 34875 ft | 461 kts | 154° |
| 2026-04-25 12:44 | -5.58287 | 11.89245 | 34878 ft | 462 kts | 154° |
| 2026-04-25 12:45 | -5.67181 | 11.92913 | 34877 ft | 462 kts | 154° |
| 2026-04-25 12:45 | -5.76143 | 11.96611 | 34875 ft | 463 kts | 154° |
| 2026-04-25 12:46 | -5.82080 | 11.99061 | 34876 ft | 464 kts | 154° |
| 2026-04-25 12:46 | -5.88067 | 12.01533 | 34873 ft | 464 kts | 154° |
| 2026-04-25 12:47 | -5.94053 | 12.04005 | 34869 ft | 465 kts | 154° |
| 2026-04-25 12:47 | -6.00000 | 12.06461 | 34872 ft | 465 kts | 154° |
| 2026-04-25 12:48 | -6.05998 | 12.08938 | 34873 ft | 465 kts | 154° |
| 2026-04-25 12:48 | -6.12000 | 12.11418 | 34866 ft | 466 kts | 154° |
| 2026-04-25 12:49 | -6.17967 | 12.13885 | 34867 ft | 466 kts | 154° |
| 2026-04-25 12:49 | -6.23983 | 12.16372 | 34871 ft | 466 kts | 154° |
| 2026-04-25 12:50 | -6.29967 | 12.18846 | 34870 ft | 466 kts | 154° |
| 2026-04-25 12:50 | -6.35973 | 12.21330 | 34873 ft | 467 kts | 155° |
| 2026-04-25 12:51 | -6.41987 | 12.23819 | 34867 ft | 467 kts | 155° |
| 2026-04-25 12:51 | -6.47965 | 12.26292 | 34870 ft | 467 kts | 155° |
| 2026-04-25 12:52 | -6.53979 | 12.28782 | 34872 ft | 466 kts | 155° |
| 2026-04-25 12:52 | -6.59985 | 12.31269 | 34870 ft | 466 kts | 155° |
| 2026-04-25 12:53 | -6.65994 | 12.33757 | 34870 ft | 466 kts | 155° |
| 2026-04-25 12:53 | -6.71960 | 12.36229 | 34871 ft | 466 kts | 155° |
| 2026-04-25 12:54 | -6.77974 | 12.38721 | 34866 ft | 466 kts | 155° |
| 2026-04-25 12:54 | -6.83941 | 12.41195 | 34867 ft | 465 kts | 155° |
| 2026-04-25 12:55 | -6.87935 | 12.42850 | 34870 ft | 465 kts | 155° |
| 2026-04-25 12:55 | -6.94908 | 12.45743 | 34870 ft | 465 kts | 155° |
| 2026-04-25 12:56 | -7.00899 | 12.48227 | 34866 ft | 465 kts | 155° |
| 2026-04-25 12:56 | -7.06900 | 12.50713 | 34868 ft | 465 kts | 155° |
| 2026-04-25 12:57 | -7.12885 | 12.53192 | 34872 ft | 465 kts | 155° |
| 2026-04-25 12:57 | -7.18848 | 12.55664 | 34871 ft | 465 kts | 155° |
| 2026-04-25 12:58 | -7.24836 | 12.58148 | 34869 ft | 465 kts | 155° |
| 2026-04-25 12:58 | -7.30827 | 12.60633 | 34869 ft | 465 kts | 155° |
| 2026-04-25 12:59 | -7.36770 | 12.63100 | 34870 ft | 465 kts | 155° |
| 2026-04-25 12:59 | -7.42763 | 12.65587 | 34868 ft | 464 kts | 155° |
| 2026-04-25 13:00 | -7.47744 | 12.67656 | 34876 ft | 464 kts | 155° |
| 2026-04-25 13:00 | -7.54693 | 12.70542 | 34860 ft | 464 kts | 155° |
| 2026-04-25 13:01 | -7.60659 | 12.73021 | 34878 ft | 463 kts | 155° |
| 2026-04-25 13:01 | -7.66617 | 12.75497 | 34861 ft | 462 kts | 155° |
| 2026-04-25 13:02 | -7.72518 | 12.77950 | 34870 ft | 460 kts | 155° |
| 2026-04-25 13:02 | -7.78420 | 12.80404 | 34869 ft | 458 kts | 155° |
| 2026-04-25 13:03 | -7.84318 | 12.82858 | 34874 ft | 457 kts | 155° |
| 2026-04-25 13:03 | -7.90205 | 12.85308 | 34868 ft | 456 kts | 155° |
| 2026-04-25 13:04 | -7.96064 | 12.87747 | 34861 ft | 455 kts | 155° |
| 2026-04-25 13:04 | -8.01922 | 12.90186 | 34868 ft | 453 kts | 155° |
| 2026-04-25 13:05 | -8.07723 | 12.92602 | 34860 ft | 452 kts | 155° |
| 2026-04-25 13:05 | -8.13541 | 12.95026 | 34860 ft | 451 kts | 155° |
| 2026-04-25 13:06 | -8.19346 | 12.97446 | 34869 ft | 451 kts | 155° |
| 2026-04-25 13:06 | -8.25115 | 12.99851 | 34869 ft | 451 kts | 155° |
| 2026-04-25 13:07 | -8.30942 | 13.02282 | 34865 ft | 452 kts | 155° |
| 2026-04-25 13:07 | -8.36781 | 13.04718 | 34875 ft | 454 kts | 155° |
| 2026-04-25 13:08 | -8.42619 | 13.07154 | 34868 ft | 456 kts | 155° |
| 2026-04-25 13:08 | -8.48492 | 13.09606 | 34883 ft | 458 kts | 155° |
| 2026-04-25 13:09 | -8.54397 | 13.12072 | 34892 ft | 460 kts | 155° |
| 2026-04-25 13:09 | -8.60334 | 13.14552 | 34896 ft | 462 kts | 155° |
| 2026-04-25 13:10 | -8.66282 | 13.17038 | 34907 ft | 463 kts | 155° |
| 2026-04-25 13:10 | -8.72210 | 13.19516 | 34901 ft | 463 kts | 155° |
| 2026-04-25 13:11 | -8.78172 | 13.22010 | 34915 ft | 463 kts | 155° |
| 2026-04-25 13:11 | -8.84137 | 13.24501 | 34910 ft | 463 kts | 156° |
| 2026-04-25 13:12 | -8.90284 | 13.26508 | 34914 ft | 464 kts | 162° |
| 2026-04-25 13:12 | -8.95246 | 13.27896 | 34909 ft | 464 kts | 162° |
| 2026-04-25 13:13 | -9.02490 | 13.29927 | 34906 ft | 463 kts | 162° |
| 2026-04-25 13:13 | -9.08675 | 13.31710 | 34907 ft | 463 kts | 161° |
| 2026-04-25 13:14 | -9.14874 | 13.33518 | 34900 ft | 462 kts | 161° |
| 2026-04-25 13:14 | -9.21064 | 13.35327 | 34896 ft | 462 kts | 161° |
| 2026-04-25 13:15 | -9.27225 | 13.37127 | 34894 ft | 462 kts | 161° |
| 2026-04-25 13:15 | -9.33409 | 13.38933 | 34894 ft | 461 kts | 161° |
| 2026-04-25 13:16 | -9.39552 | 13.40728 | 34900 ft | 462 kts | 161° |
| 2026-04-25 13:16 | -9.45743 | 13.42538 | 34894 ft | 462 kts | 161° |
| 2026-04-25 13:17 | -9.51920 | 13.44344 | 34893 ft | 462 kts | 161° |
| 2026-04-25 13:17 | -9.58082 | 13.46146 | 34888 ft | 462 kts | 161° |
| 2026-04-25 13:18 | -9.64273 | 13.47957 | 34890 ft | 463 kts | 161° |
| 2026-04-25 13:18 | -9.70429 | 13.49759 | 34893 ft | 463 kts | 161° |
| 2026-04-25 13:19 | -9.76624 | 13.51573 | 34890 ft | 464 kts | 161° |
| 2026-04-25 13:19 | -9.81793 | 13.53087 | 34891 ft | 464 kts | 161° |
| 2026-04-25 13:20 | -9.89056 | 13.55216 | 34889 ft | 464 kts | 161° |
| 2026-04-25 13:20 | -9.95244 | 13.57030 | 34885 ft | 465 kts | 161° |
| 2026-04-25 13:21 | -10.01474 | 13.58857 | 34883 ft | 465 kts | 161° |
| 2026-04-25 13:21 | -10.07700 | 13.60685 | 34887 ft | 465 kts | 161° |
| 2026-04-25 13:22 | -10.13897 | 13.62504 | 34882 ft | 465 kts | 161° |
| 2026-04-25 13:23 | -10.23242 | 13.65276 | 34882 ft | 465 kts | 161° |
| 2026-04-25 13:23 | -10.29424 | 13.67116 | 34877 ft | 465 kts | 161° |
| 2026-04-25 13:24 | -10.35633 | 13.68962 | 34880 ft | 465 kts | 161° |
| 2026-04-25 13:24 | -10.41870 | 13.70817 | 34879 ft | 465 kts | 161° |
| 2026-04-25 13:25 | -10.47029 | 13.72352 | 34877 ft | 464 kts | 161° |
| 2026-04-25 13:25 | -10.54246 | 13.74500 | 34877 ft | 464 kts | 161° |
| 2026-04-25 13:26 | -10.60451 | 13.76348 | 34879 ft | 464 kts | 162° |
| 2026-04-25 13:26 | -10.66634 | 13.78190 | 34873 ft | 464 kts | 161° |
| 2026-04-25 13:27 | -10.72831 | 13.80037 | 34874 ft | 464 kts | 162° |
| 2026-04-25 13:27 | -10.78706 | 13.82661 | 34877 ft | 460 kts | 146° |
| 2026-04-25 13:28 | -10.83669 | 13.86674 | 34878 ft | 458 kts | 137° |
| 2026-04-25 13:28 | -10.88488 | 13.90941 | 34879 ft | 458 kts | 137° |
| 2026-04-25 13:29 | -10.93319 | 13.95195 | 34881 ft | 459 kts | 138° |
| 2026-04-25 13:29 | -10.98147 | 13.99406 | 34878 ft | 459 kts | 138° |
| 2026-04-25 13:30 | -11.05448 | 14.05751 | 34889 ft | 460 kts | 138° |
| 2026-04-25 13:31 | -11.12733 | 14.12086 | 34888 ft | 461 kts | 138° |
| 2026-04-25 13:31 | -11.17620 | 14.16338 | 34895 ft | 461 kts | 138° |
| 2026-04-25 13:32 | -11.22497 | 14.20584 | 34898 ft | 461 kts | 138° |
| 2026-04-25 13:32 | -11.27349 | 14.24811 | 34897 ft | 461 kts | 138° |
| 2026-04-25 13:33 | -11.32232 | 14.29066 | 34900 ft | 461 kts | 138° |
| 2026-04-25 13:33 | -11.37116 | 14.33324 | 34902 ft | 461 kts | 138° |
| 2026-04-25 13:34 | -11.41959 | 14.37549 | 34900 ft | 461 kts | 138° |
| 2026-04-25 13:34 | -11.46839 | 14.41808 | 34905 ft | 461 kts | 138° |
| 2026-04-25 13:35 | -11.51717 | 14.46067 | 34908 ft | 461 kts | 138° |
| 2026-04-25 13:35 | -11.56601 | 14.50333 | 34912 ft | 461 kts | 138° |
| 2026-04-25 13:36 | -11.61479 | 14.54596 | 34908 ft | 462 kts | 138° |
| 2026-04-25 13:36 | -11.66343 | 14.58850 | 34909 ft | 462 kts | 138° |
| 2026-04-25 13:37 | -11.71233 | 14.63127 | 34906 ft | 463 kts | 138° |
| 2026-04-25 13:37 | -11.76100 | 14.67387 | 34912 ft | 464 kts | 138° |
| 2026-04-25 13:38 | -11.81005 | 14.71682 | 34918 ft | 464 kts | 138° |
| 2026-04-25 13:38 | -11.85914 | 14.75982 | 34917 ft | 464 kts | 138° |
| 2026-04-25 13:39 | -11.90816 | 14.80278 | 34920 ft | 464 kts | 138° |
| 2026-04-25 13:39 | -11.95694 | 14.84556 | 34922 ft | 464 kts | 138° |
| 2026-04-25 13:40 | -11.99781 | 14.88142 | 34929 ft | 464 kts | 138° |
| 2026-04-25 13:40 | -12.05471 | 14.93137 | 34927 ft | 463 kts | 138° |
| 2026-04-25 13:41 | -12.09541 | 14.96710 | 34936 ft | 463 kts | 138° |
| 2026-04-25 13:41 | -12.14434 | 15.01010 | 34936 ft | 463 kts | 138° |
| 2026-04-25 13:42 | -12.19292 | 15.05280 | 34937 ft | 463 kts | 138° |
| 2026-04-25 13:42 | -12.24183 | 15.09581 | 34942 ft | 463 kts | 138° |
| 2026-04-25 13:43 | -12.29058 | 15.13871 | 34941 ft | 463 kts | 138° |
| 2026-04-25 13:43 | -12.33927 | 15.18158 | 34945 ft | 463 kts | 138° |
| 2026-04-25 13:44 | -12.38811 | 15.22460 | 34946 ft | 463 kts | 138° |
| 2026-04-25 13:44 | -12.43669 | 15.26741 | 34946 ft | 463 kts | 138° |
| 2026-04-25 13:45 | -12.48556 | 15.31049 | 34951 ft | 463 kts | 138° |
| 2026-04-25 13:45 | -12.53448 | 15.35365 | 34952 ft | 464 kts | 138° |
| 2026-04-25 13:46 | -12.58342 | 15.39685 | 34953 ft | 464 kts | 138° |
| 2026-04-25 13:46 | -12.63212 | 15.43986 | 34953 ft | 465 kts | 138° |
| 2026-04-25 13:47 | -12.68123 | 15.48326 | 34950 ft | 466 kts | 138° |
| 2026-04-25 13:47 | -12.73038 | 15.52671 | 34954 ft | 466 kts | 138° |
| 2026-04-25 13:48 | -12.77555 | 15.56666 | 34953 ft | 466 kts | 139° |
| 2026-04-25 13:48 | -12.82468 | 15.61013 | 34954 ft | 466 kts | 139° |
| 2026-04-25 13:49 | -12.87356 | 15.65341 | 34956 ft | 467 kts | 139° |
| 2026-04-25 13:49 | -12.92256 | 15.69682 | 34956 ft | 467 kts | 139° |
| 2026-04-25 13:50 | -12.97171 | 15.74039 | 34957 ft | 467 kts | 139° |
| 2026-04-25 13:50 | -13.02091 | 15.78402 | 34956 ft | 467 kts | 139° |
| 2026-04-25 13:51 | -13.07009 | 15.82766 | 34955 ft | 467 kts | 139° |
| 2026-04-25 13:51 | -13.11900 | 15.87109 | 34954 ft | 467 kts | 139° |
| 2026-04-25 13:52 | -13.16822 | 15.91480 | 34956 ft | 468 kts | 139° |
| 2026-04-25 13:52 | -13.21741 | 15.95853 | 34956 ft | 468 kts | 139° |
| 2026-04-25 13:53 | -13.26683 | 16.00248 | 34956 ft | 468 kts | 139° |
| 2026-04-25 13:53 | -13.31597 | 16.04620 | 34959 ft | 468 kts | 139° |
| 2026-04-25 13:54 | -13.36481 | 16.08969 | 34957 ft | 468 kts | 139° |
| 2026-04-25 13:54 | -13.41410 | 16.13359 | 34956 ft | 468 kts | 139° |
| 2026-04-25 13:55 | -13.46328 | 16.17742 | 34960 ft | 468 kts | 139° |
| 2026-04-25 13:55 | -13.51258 | 16.22139 | 34957 ft | 468 kts | 139° |
| 2026-04-25 13:56 | -13.56188 | 16.26539 | 34960 ft | 469 kts | 139° |
| 2026-04-25 13:56 | -13.61083 | 16.30909 | 34957 ft | 469 kts | 139° |
| 2026-04-25 13:57 | -13.66012 | 16.35313 | 34960 ft | 469 kts | 139° |
| 2026-04-25 13:57 | -13.70928 | 16.39709 | 34954 ft | 469 kts | 139° |
| 2026-04-25 13:58 | -13.75861 | 16.44121 | 34956 ft | 469 kts | 139° |
| 2026-04-25 13:58 | -13.80759 | 16.48564 | 34955 ft | 469 kts | 139° |
| 2026-04-25 13:59 | -13.85601 | 16.52995 | 34955 ft | 469 kts | 139° |
| 2026-04-25 13:59 | -13.90466 | 16.57448 | 34955 ft | 469 kts | 139° |
| 2026-04-25 14:00 | -13.95357 | 16.61920 | 34955 ft | 469 kts | 139° |
| 2026-04-25 14:00 | -14.00234 | 16.66380 | 34955 ft | 469 kts | 139° |
| 2026-04-25 14:01 | -14.05094 | 16.70825 | 34951 ft | 469 kts | 139° |
| 2026-04-25 14:01 | -14.09997 | 16.75312 | 34949 ft | 469 kts | 139° |
| 2026-04-25 14:02 | -14.14855 | 16.79762 | 34951 ft | 470 kts | 139° |
| 2026-04-25 14:02 | -14.19754 | 16.84251 | 34948 ft | 469 kts | 139° |
| 2026-04-25 14:03 | -14.24633 | 16.88724 | 34955 ft | 469 kts | 139° |
| 2026-04-25 14:03 | -14.29520 | 16.93209 | 34960 ft | 469 kts | 139° |
| 2026-04-25 14:04 | -14.34344 | 16.97639 | 34953 ft | 469 kts | 139° |
| 2026-04-25 14:04 | -14.39235 | 17.02133 | 34953 ft | 470 kts | 139° |
| 2026-04-25 14:05 | -14.44096 | 17.06601 | 34953 ft | 470 kts | 139° |
| 2026-04-25 14:05 | -14.48979 | 17.11092 | 34951 ft | 470 kts | 139° |
| 2026-04-25 14:06 | -14.53857 | 17.15582 | 34955 ft | 470 kts | 139° |
| 2026-04-25 14:06 | -14.58760 | 17.20097 | 34954 ft | 471 kts | 139° |
| 2026-04-25 14:07 | -14.63642 | 17.24596 | 34956 ft | 471 kts | 139° |
| 2026-04-25 14:07 | -14.68501 | 17.29077 | 34958 ft | 471 kts | 139° |
| 2026-04-25 14:08 | -14.73396 | 17.33593 | 34954 ft | 471 kts | 139° |
| 2026-04-25 14:08 | -14.78250 | 17.38074 | 34955 ft | 471 kts | 139° |
| 2026-04-25 14:09 | -14.83159 | 17.42610 | 34951 ft | 471 kts | 139° |
| 2026-04-25 14:09 | -14.88063 | 17.47143 | 34942 ft | 471 kts | 139° |
| 2026-04-25 14:10 | -14.92921 | 17.51636 | 34951 ft | 471 kts | 139° |
| 2026-04-25 14:10 | -14.97820 | 17.56170 | 34954 ft | 471 kts | 139° |
| 2026-04-25 14:11 | -15.02662 | 17.60655 | 34943 ft | 471 kts | 139° |
| 2026-04-25 14:11 | -15.07475 | 17.65115 | 34944 ft | 470 kts | 139° |
| 2026-04-25 14:12 | -15.12343 | 17.69629 | 34947 ft | 470 kts | 139° |
| 2026-04-25 14:12 | -15.17217 | 17.74152 | 34952 ft | 470 kts | 139° |
| 2026-04-25 14:13 | -15.22056 | 17.78645 | 34945 ft | 470 kts | 139° |
| 2026-04-25 14:13 | -15.26928 | 17.83172 | 34949 ft | 470 kts | 139° |
| 2026-04-25 14:14 | -15.31801 | 17.87702 | 34947 ft | 470 kts | 139° |
| 2026-04-25 14:14 | -15.36639 | 17.92203 | 34954 ft | 470 kts | 139° |
| 2026-04-25 14:15 | -15.41510 | 17.96738 | 34955 ft | 470 kts | 139° |
| 2026-04-25 14:15 | -15.46377 | 18.01272 | 34953 ft | 470 kts | 139° |
| 2026-04-25 14:16 | -15.51236 | 18.05802 | 34948 ft | 470 kts | 139° |
| 2026-04-25 14:16 | -15.56074 | 18.10314 | 34953 ft | 470 kts | 139° |
| 2026-04-25 14:17 | -15.60939 | 18.14856 | 34953 ft | 470 kts | 139° |
| 2026-04-25 14:17 | -15.65810 | 18.19405 | 34947 ft | 470 kts | 139° |
| 2026-04-25 14:18 | -15.70665 | 18.23943 | 34949 ft | 470 kts | 139° |
| 2026-04-25 14:18 | -15.75507 | 18.28471 | 34951 ft | 470 kts | 139° |
| 2026-04-25 14:19 | -15.80362 | 18.33016 | 34946 ft | 470 kts | 140° |
| 2026-04-25 14:19 | -15.85202 | 18.37548 | 34956 ft | 470 kts | 140° |
| 2026-04-25 14:20 | -15.90057 | 18.42098 | 34951 ft | 470 kts | 140° |
| 2026-04-25 14:20 | -15.94921 | 18.46660 | 34951 ft | 470 kts | 140° |
| 2026-04-25 14:21 | -15.99744 | 18.51186 | 34951 ft | 470 kts | 140° |
| 2026-04-25 14:21 | -16.04606 | 18.55751 | 34954 ft | 470 kts | 140° |
| 2026-04-25 14:22 | -16.09460 | 18.60313 | 34949 ft | 470 kts | 140° |
| 2026-04-25 14:22 | -16.14316 | 18.64880 | 34953 ft | 470 kts | 140° |
| 2026-04-25 14:23 | -16.19150 | 18.69428 | 34953 ft | 470 kts | 140° |
| 2026-04-25 14:23 | -16.24014 | 18.74009 | 34952 ft | 470 kts | 140° |
| 2026-04-25 14:24 | -16.28845 | 18.78561 | 34954 ft | 470 kts | 140° |
| 2026-04-25 14:24 | -16.33691 | 18.83131 | 34955 ft | 470 kts | 140° |
| 2026-04-25 14:25 | -16.38555 | 18.87721 | 34959 ft | 470 kts | 140° |
| 2026-04-25 14:25 | -16.43407 | 18.92303 | 34951 ft | 470 kts | 140° |
| 2026-04-25 14:26 | -16.48224 | 18.96855 | 34955 ft | 470 kts | 140° |
| 2026-04-25 14:26 | -16.53070 | 19.01438 | 34956 ft | 470 kts | 140° |
| 2026-04-25 14:27 | -16.57913 | 19.06020 | 34957 ft | 470 kts | 140° |
| 2026-04-25 14:27 | -16.62766 | 19.10616 | 34957 ft | 470 kts | 140° |
| 2026-04-25 14:28 | -16.66798 | 19.14436 | 34947 ft | 470 kts | 140° |
| 2026-04-25 14:28 | -16.72429 | 19.19777 | 34961 ft | 470 kts | 140° |
| 2026-04-25 14:29 | -16.76459 | 19.23601 | 34961 ft | 470 kts | 140° |
| 2026-04-25 14:29 | -16.81312 | 19.28209 | 34958 ft | 470 kts | 140° |
| 2026-04-25 14:30 | -16.86131 | 19.32789 | 34962 ft | 470 kts | 140° |
| 2026-04-25 14:30 | -16.93392 | 19.39695 | 34959 ft | 470 kts | 140° |
| 2026-04-25 14:31 | -16.98200 | 19.44272 | 34963 ft | 471 kts | 140° |
| 2026-04-25 14:31 | -17.03049 | 19.48891 | 34967 ft | 471 kts | 140° |
| 2026-04-25 14:32 | -17.07902 | 19.53519 | 34960 ft | 471 kts | 140° |
| 2026-04-25 14:32 | -17.12720 | 19.58115 | 34967 ft | 471 kts | 140° |
| 2026-04-25 14:33 | -17.17564 | 19.62740 | 34972 ft | 471 kts | 140° |
| 2026-04-25 14:33 | -17.22406 | 19.67366 | 34964 ft | 471 kts | 140° |
| 2026-04-25 14:34 | -17.27228 | 19.71978 | 34973 ft | 471 kts | 140° |
| 2026-04-25 14:34 | -17.32071 | 19.76612 | 34976 ft | 471 kts | 140° |
| 2026-04-25 14:35 | -17.36918 | 19.81254 | 34975 ft | 471 kts | 140° |
| 2026-04-25 14:35 | -17.41762 | 19.85896 | 34977 ft | 471 kts | 140° |
| 2026-04-25 14:36 | -17.46564 | 19.90502 | 34971 ft | 471 kts | 140° |
| 2026-04-25 14:36 | -17.51390 | 19.95134 | 34989 ft | 471 kts | 140° |
| 2026-04-25 14:37 | -17.56240 | 19.99793 | 34988 ft | 471 kts | 140° |
| 2026-04-25 14:37 | -17.61071 | 20.04437 | 34976 ft | 471 kts | 140° |
| 2026-04-25 14:38 | -17.65870 | 20.09053 | 34995 ft | 471 kts | 140° |
| 2026-04-25 14:38 | -17.70701 | 20.13705 | 34997 ft | 471 kts | 140° |
| 2026-04-25 14:39 | -17.75533 | 20.18361 | 34984 ft | 471 kts | 140° |
| 2026-04-25 14:39 | -17.80327 | 20.22984 | 34987 ft | 471 kts | 140° |
| 2026-04-25 14:40 | -17.85152 | 20.27641 | 35001 ft | 471 kts | 140° |
| 2026-04-25 14:40 | -17.90051 | 20.32208 | 34995 ft | 469 kts | 143° |
| 2026-04-25 14:41 | -17.95190 | 20.36469 | 34990 ft | 469 kts | 145° |
| 2026-04-25 14:41 | -18.00331 | 20.40653 | 34996 ft | 469 kts | 145° |
| 2026-04-25 14:42 | -18.04600 | 20.44170 | 35001 ft | 469 kts | 145° |
| 2026-04-25 14:42 | -18.10518 | 20.49091 | 35002 ft | 469 kts | 144° |
| 2026-04-25 14:43 | -18.13911 | 20.51922 | 35006 ft | 469 kts | 144° |
| 2026-04-25 14:43 | -18.19007 | 20.56177 | 35011 ft | 469 kts | 144° |
| 2026-04-25 14:44 | -18.24128 | 20.60453 | 35011 ft | 469 kts | 145° |
| 2026-04-25 14:44 | -18.29220 | 20.64708 | 35009 ft | 469 kts | 145° |
| 2026-04-25 14:45 | -18.34344 | 20.68993 | 35015 ft | 469 kts | 145° |
| 2026-04-25 14:45 | -18.39465 | 20.73278 | 35012 ft | 469 kts | 145° |
| 2026-04-25 14:46 | -18.44542 | 20.77530 | 35016 ft | 469 kts | 145° |
| 2026-04-25 14:46 | -18.49657 | 20.81817 | 35019 ft | 469 kts | 145° |
| 2026-04-25 14:47 | -18.53906 | 20.85381 | 35023 ft | 469 kts | 145° |
| 2026-04-25 14:47 | -18.59839 | 20.90362 | 35019 ft | 469 kts | 145° |
| 2026-04-25 14:48 | -18.64941 | 20.94650 | 35019 ft | 469 kts | 145° |
| 2026-04-25 14:48 | -18.70055 | 20.98950 | 35018 ft | 468 kts | 145° |
| 2026-04-25 14:49 | -18.75126 | 21.03218 | 35019 ft | 468 kts | 145° |
| 2026-04-25 14:49 | -18.80225 | 21.07516 | 35021 ft | 468 kts | 145° |
| 2026-04-25 14:50 | -18.85318 | 21.11813 | 35021 ft | 468 kts | 145° |
| 2026-04-25 14:50 | -18.90397 | 21.16102 | 35022 ft | 468 kts | 145° |
| 2026-04-25 14:51 | -18.95487 | 21.20404 | 35027 ft | 468 kts | 145° |
| 2026-04-25 14:51 | -19.00546 | 21.24683 | 35028 ft | 468 kts | 145° |
| 2026-04-25 14:52 | -19.05633 | 21.28989 | 35026 ft | 468 kts | 145° |
| 2026-04-25 14:52 | -19.09865 | 21.32574 | 35027 ft | 468 kts | 145° |
| 2026-04-25 14:53 | -19.15791 | 21.37598 | 35025 ft | 468 kts | 145° |
| 2026-04-25 14:53 | -19.20871 | 21.41909 | 35030 ft | 468 kts | 146° |
| 2026-04-25 14:54 | -19.25937 | 21.46211 | 35030 ft | 468 kts | 146° |
| 2026-04-25 14:54 | -19.31020 | 21.50532 | 35030 ft | 467 kts | 146° |
| 2026-04-25 14:55 | -19.36076 | 21.54833 | 35028 ft | 467 kts | 146° |
| 2026-04-25 14:55 | -19.41149 | 21.59153 | 35031 ft | 467 kts | 146° |
| 2026-04-25 14:56 | -19.46195 | 21.63453 | 35028 ft | 467 kts | 146° |
| 2026-04-25 14:56 | -19.51240 | 21.67757 | 35031 ft | 467 kts | 146° |
| 2026-04-25 14:57 | -19.56332 | 21.72131 | 35033 ft | 468 kts | 146° |
| 2026-04-25 14:57 | -19.61343 | 21.76447 | 35035 ft | 468 kts | 146° |
| 2026-04-25 14:58 | -19.66408 | 21.80809 | 35034 ft | 468 kts | 146° |
| 2026-04-25 14:58 | -19.71462 | 21.85165 | 35037 ft | 468 kts | 146° |
| 2026-04-25 14:59 | -19.76500 | 21.89496 | 35037 ft | 468 kts | 146° |
| 2026-04-25 14:59 | -19.81611 | 21.93821 | 35036 ft | 468 kts | 147° |
| 2026-04-25 15:00 | -19.86581 | 21.98017 | 35039 ft | 469 kts | 147° |
| 2026-04-25 15:00 | -19.91715 | 22.02365 | 35041 ft | 469 kts | 146° |
| 2026-04-25 15:01 | -19.96800 | 22.06682 | 35042 ft | 469 kts | 147° |
| 2026-04-25 15:01 | -20.01898 | 22.11015 | 35043 ft | 469 kts | 147° |
| 2026-04-25 15:02 | -20.07007 | 22.15360 | 35044 ft | 469 kts | 147° |
| 2026-04-25 15:02 | -20.12076 | 22.19675 | 35043 ft | 469 kts | 147° |
| 2026-04-25 15:03 | -20.17187 | 22.24029 | 35044 ft | 469 kts | 147° |
| 2026-04-25 15:03 | -20.22285 | 22.28376 | 35049 ft | 469 kts | 147° |
| 2026-04-25 15:04 | -20.27370 | 22.32716 | 35045 ft | 469 kts | 147° |
| 2026-04-25 15:04 | -20.32471 | 22.37074 | 35050 ft | 469 kts | 147° |
| 2026-04-25 15:05 | -20.37536 | 22.41404 | 35048 ft | 469 kts | 147° |
| 2026-04-25 15:06 | -20.45186 | 22.47960 | 35053 ft | 469 kts | 147° |
| 2026-04-25 15:06 | -20.50242 | 22.52308 | 35054 ft | 469 kts | 147° |
| 2026-04-25 15:07 | -20.55325 | 22.56682 | 35055 ft | 469 kts | 147° |
| 2026-04-25 15:07 | -20.60411 | 22.61063 | 35055 ft | 469 kts | 147° |
| 2026-04-25 15:08 | -20.65452 | 22.65408 | 35062 ft | 468 kts | 147° |
| 2026-04-25 15:08 | -20.70535 | 22.69794 | 35058 ft | 468 kts | 147° |
| 2026-04-25 15:09 | -20.75605 | 22.74172 | 35068 ft | 468 kts | 147° |
| 2026-04-25 15:09 | -20.83191 | 22.80730 | 35074 ft | 468 kts | 147° |
| 2026-04-25 15:10 | -20.88268 | 22.85138 | 35078 ft | 468 kts | 147° |
| 2026-04-25 15:11 | -20.95828 | 22.91729 | 35077 ft | 468 kts | 147° |
| 2026-04-25 15:11 | -21.00851 | 22.96111 | 35085 ft | 468 kts | 147° |
| 2026-04-25 15:12 | -21.08425 | 23.02725 | 35074 ft | 468 kts | 147° |
| 2026-04-25 15:12 | -21.11804 | 23.05678 | 35093 ft | 467 kts | 147° |
| 2026-04-25 15:13 | -21.21007 | 23.13732 | 35083 ft | 467 kts | 147° |
| 2026-04-25 15:14 | -21.26046 | 23.18147 | 35087 ft | 467 kts | 147° |
| 2026-04-25 15:14 | -21.31079 | 23.22560 | 35088 ft | 466 kts | 147° |
| 2026-04-25 15:15 | -21.36110 | 23.26973 | 35090 ft | 466 kts | 147° |
| 2026-04-25 15:15 | -21.41112 | 23.31366 | 35089 ft | 466 kts | 147° |
| 2026-04-25 15:16 | -21.46131 | 23.35779 | 35090 ft | 466 kts | 147° |
| 2026-04-25 15:16 | -21.52801 | 23.41650 | 35093 ft | 466 kts | 147° |
| 2026-04-25 15:17 | -21.60339 | 23.48294 | 35089 ft | 466 kts | 147° |
| 2026-04-25 15:18 | -21.65320 | 23.52689 | 35087 ft | 466 kts | 147° |
| 2026-04-25 15:18 | -21.72742 | 23.59245 | 35084 ft | 466 kts | 147° |
| 2026-04-25 15:19 | -21.76905 | 23.62927 | 35083 ft | 466 kts | 147° |
| 2026-04-25 15:19 | -21.82769 | 23.68118 | 35086 ft | 466 kts | 147° |
| 2026-04-25 15:20 | -21.87778 | 23.72556 | 35087 ft | 466 kts | 147° |
| 2026-04-25 15:20 | -21.92786 | 23.76997 | 35088 ft | 466 kts | 147° |
| 2026-04-25 15:21 | -21.97770 | 23.81422 | 35085 ft | 467 kts | 147° |
| 2026-04-25 15:21 | -22.02788 | 23.85881 | 35086 ft | 467 kts | 147° |
| 2026-04-25 15:22 | -22.07810 | 23.90348 | 35089 ft | 467 kts | 147° |
| 2026-04-25 15:22 | -22.12793 | 23.94785 | 35085 ft | 467 kts | 147° |
| 2026-04-25 15:23 | -22.17810 | 23.99255 | 35089 ft | 467 kts | 147° |
| 2026-04-25 15:23 | -22.22838 | 24.03740 | 35089 ft | 467 kts | 147° |
| 2026-04-25 15:24 | -22.27819 | 24.08187 | 35087 ft | 467 kts | 147° |
| 2026-04-25 15:24 | -22.31991 | 24.11915 | 35087 ft | 467 kts | 147° |
| 2026-04-25 15:25 | -22.37864 | 24.17169 | 35087 ft | 467 kts | 147° |
| 2026-04-25 15:25 | -22.42851 | 24.21634 | 35090 ft | 468 kts | 147° |
| 2026-04-25 15:26 | -22.47865 | 24.26129 | 35091 ft | 468 kts | 147° |
| 2026-04-25 15:26 | -22.52858 | 24.30609 | 35087 ft | 468 kts | 147° |
| 2026-04-25 15:27 | -22.57883 | 24.35121 | 35090 ft | 468 kts | 147° |
| 2026-04-25 15:28 | -22.65368 | 24.41852 | 35094 ft | 468 kts | 147° |
| 2026-04-25 15:28 | -22.70392 | 24.46376 | 35096 ft | 468 kts | 147° |
| 2026-04-25 15:29 | -22.75417 | 24.50905 | 35097 ft | 468 kts | 147° |
| 2026-04-25 15:29 | -22.80386 | 24.55408 | 35099 ft | 468 kts | 147° |
| 2026-04-25 15:30 | -22.85388 | 24.59951 | 35097 ft | 468 kts | 147° |
| 2026-04-25 15:30 | -22.90393 | 24.64503 | 35104 ft | 468 kts | 147° |
| 2026-04-25 15:31 | -22.95363 | 24.69024 | 35107 ft | 469 kts | 147° |
| 2026-04-25 15:31 | -23.00374 | 24.73587 | 35114 ft | 469 kts | 147° |
| 2026-04-25 15:32 | -23.05344 | 24.78118 | 35117 ft | 469 kts | 147° |
| 2026-04-25 15:32 | -23.10360 | 24.82695 | 35117 ft | 469 kts | 147° |
| 2026-04-25 15:33 | -23.17832 | 24.89521 | 35125 ft | 469 kts | 147° |
| 2026-04-25 15:33 | -23.22833 | 24.94096 | 35127 ft | 470 kts | 147° |
| 2026-04-25 15:34 | -23.27838 | 24.98679 | 35132 ft | 470 kts | 147° |
| 2026-04-25 15:34 | -23.32011 | 25.02504 | 35138 ft | 470 kts | 147° |
| 2026-04-25 15:35 | -23.40333 | 25.10141 | 35143 ft | 470 kts | 147° |
| 2026-04-25 15:36 | -23.47849 | 25.17051 | 35151 ft | 471 kts | 147° |
| 2026-04-25 15:36 | -23.52861 | 25.21665 | 35155 ft | 471 kts | 147° |
| 2026-04-25 15:37 | -23.57835 | 25.26248 | 35163 ft | 471 kts | 147° |
| 2026-04-25 15:37 | -23.63004 | 25.30656 | 35155 ft | 463 kts | 156° |
| 2026-04-25 15:38 | -23.68661 | 25.33784 | 35171 ft | 457 kts | 161° |
| 2026-04-25 15:38 | -23.74398 | 25.36788 | 35172 ft | 457 kts | 161° |
| 2026-04-25 15:39 | -23.80121 | 25.39832 | 35176 ft | 458 kts | 160° |
| 2026-04-25 15:39 | -23.85850 | 25.42921 | 35181 ft | 458 kts | 160° |
| 2026-04-25 15:40 | -23.89640 | 25.44973 | 35180 ft | 459 kts | 160° |
| 2026-04-25 15:40 | -23.97268 | 25.49109 | 35189 ft | 459 kts | 160° |
| 2026-04-25 15:41 | -24.03008 | 25.52223 | 35195 ft | 459 kts | 160° |
| 2026-04-25 15:41 | -24.08693 | 25.55310 | 35195 ft | 459 kts | 160° |
| 2026-04-25 15:42 | -24.14426 | 25.58426 | 35200 ft | 459 kts | 160° |
| 2026-04-25 15:42 | -24.20147 | 25.61538 | 35201 ft | 459 kts | 160° |
| 2026-04-25 15:43 | -24.25838 | 25.64637 | 35202 ft | 459 kts | 160° |
| 2026-04-25 15:43 | -24.31559 | 25.67756 | 35211 ft | 459 kts | 160° |
| 2026-04-25 15:44 | -24.37283 | 25.70879 | 35212 ft | 459 kts | 160° |
| 2026-04-25 15:44 | -24.42982 | 25.73993 | 35201 ft | 459 kts | 160° |
| 2026-04-25 15:45 | -24.48717 | 25.77129 | 35218 ft | 458 kts | 161° |
| 2026-04-25 15:45 | -24.52501 | 25.79200 | 35223 ft | 458 kts | 161° |
| 2026-04-25 15:46 | -24.59691 | 25.84306 | 35227 ft | 476 kts | 142° |
| 2026-04-25 15:46 | -24.63691 | 25.90253 | 35232 ft | 493 kts | 126° |
| 2026-04-25 15:47 | -24.66974 | 25.96887 | 35226 ft | 493 kts | 126° |
| 2026-04-25 15:47 | -24.70463 | 26.03369 | 35211 ft | 486 kts | 134° |
| 2026-04-25 15:48 | -24.75008 | 26.08625 | 35214 ft | 468 kts | 150° |
| 2026-04-25 15:48 | -24.80209 | 26.12940 | 35218 ft | 467 kts | 150° |
| 2026-04-25 15:49 | -24.85390 | 26.17235 | 35226 ft | 469 kts | 150° |
| 2026-04-25 15:49 | -24.90573 | 26.21599 | 35228 ft | 470 kts | 150° |
| 2026-04-25 15:50 | -24.95762 | 26.25998 | 35228 ft | 470 kts | 150° |
| 2026-04-25 15:50 | -25.00922 | 26.30381 | 35232 ft | 470 kts | 150° |
| 2026-04-25 15:51 | -25.04391 | 26.33328 | 35228 ft | 471 kts | 150° |
| 2026-04-25 15:51 | -25.11305 | 26.39207 | 35232 ft | 471 kts | 150° |
| 2026-04-25 15:52 | -25.16512 | 26.43640 | 35236 ft | 471 kts | 150° |
| 2026-04-25 15:52 | -25.21675 | 26.48039 | 35243 ft | 471 kts | 150° |
| 2026-04-25 15:53 | -25.26877 | 26.52472 | 35235 ft | 471 kts | 150° |
| 2026-04-25 15:53 | -25.32078 | 26.56909 | 35243 ft | 471 kts | 150° |
| 2026-04-25 15:54 | -25.37251 | 26.61329 | 35244 ft | 471 kts | 150° |
| 2026-04-25 15:54 | -25.42446 | 26.65772 | 35255 ft | 471 kts | 150° |
| 2026-04-25 15:55 | -25.47637 | 26.70218 | 35250 ft | 472 kts | 150° |
| 2026-04-25 15:55 | -25.52823 | 26.74664 | 35264 ft | 471 kts | 150° |
| 2026-04-25 15:56 | -25.57988 | 26.79098 | 35273 ft | 471 kts | 150° |
| 2026-04-25 15:56 | -25.60604 | 26.81342 | 34827 ft | 478 kts | 150° |
| 2026-04-25 15:56 | -25.63147 | 26.83753 | 34188 ft | 487 kts | 140° |
| 2026-04-25 15:57 | -25.65160 | 26.86837 | 33436 ft | 502 kts | 124° |
| 2026-04-25 15:57 | -25.66471 | 26.90418 | 32712 ft | 514 kts | 109° |
| 2026-04-25 15:57 | -25.67036 | 26.94368 | 32003 ft | 520 kts | 100° |
| 2026-04-25 15:57 | -25.67399 | 26.98374 | 31174 ft | 521 kts | 98° |
| 2026-04-25 15:58 | -25.67728 | 27.02384 | 30397 ft | 523 kts | 98° |
| 2026-04-25 15:58 | -25.68071 | 27.06402 | 29417 ft | 524 kts | 98° |
| 2026-04-25 15:58 | -25.68440 | 27.10380 | 28517 ft | 523 kts | 98° |
| 2026-04-25 15:58 | -25.68835 | 27.14384 | 27593 ft | 521 kts | 98° |
| 2026-04-25 15:59 | -25.69240 | 27.18333 | 27423 ft | 505 kts | 98° |
| 2026-04-25 15:59 | -25.69636 | 27.22159 | 27159 ft | 492 kts | 98° |
| 2026-04-25 15:59 | -25.70021 | 27.25890 | 26951 ft | 479 kts | 98° |
| 2026-04-25 15:59 | -25.70392 | 27.29509 | 26745 ft | 467 kts | 97° |